sensor_id;sensor_type;location;lat;lon;timestamp;temperature;humidity
1702;DHT22;848;48.354;10.064;2023-08-06T00:00:52;16.30;99.90
1702;DHT22;848;48.354;10.064;2023-08-06T00:03:18;16.30;99.90
1702;DHT22;848;48.354;10.064;2023-08-06T00:05:45;16.30;99.90
1702;DHT22;848;48.354;10.064;2023-08-06T00:08:12;16.30;99.90
1702;DHT22;848;48.354;10.064;2023-08-06T00:10:39;16.20;99.90
1702;DHT22;848;48.354;10.064;2023-08-06T00:13:07;16.20;99.90
1702;DHT22;848;48.354;10.064;2023-08-06T00:15:35;16.20;99.90
1702;DHT22;848;48.354;10.064;2023-08-06T00:18:02;16.20;99.90
1702;DHT22;848;48.354;10.064;2023-08-06T00:20:29;16.20;99.90
1702;DHT22;848;48.354;10.064;2023-08-06T00:22:56;16.20;99.90
1702;DHT22;848;48.354;10.064;2023-08-06T00:25:22;16.20;99.90
1702;DHT22;848;48.354;10.064;2023-08-06T00:27:49;16.20;99.90
1702;DHT22;848;48.354;10.064;2023-08-06T00:30:16;16.20;99.90
1702;DHT22;848;48.354;10.064;2023-08-06T00:32:45;16.20;99.90
1702;DHT22;848;48.354;10.064;2023-08-06T00:35:11;16.20;99.90
1702;DHT22;848;48.354;10.064;2023-08-06T00:37:39;16.20;99.90
1702;DHT22;848;48.354;10.064;2023-08-06T00:40:07;16.20;99.90
1702;DHT22;848;48.354;10.064;2023-08-06T00:42:34;16.20;99.90
1702;DHT22;848;48.354;10.064;2023-08-06T00:45:01;16.10;99.90
1702;DHT22;848;48.354;10.064;2023-08-06T00:47:28;16.20;99.90
1702;DHT22;848;48.354;10.064;2023-08-06T00:49:57;16.10;99.90
1702;DHT22;848;48.354;10.064;2023-08-06T00:52:24;16.10;99.90
1702;DHT22;848;48.354;10.064;2023-08-06T00:54:51;16.00;99.90
1702;DHT22;848;48.354;10.064;2023-08-06T00:57:18;16.00;99.90
1702;DHT22;848;48.354;10.064;2023-08-06T00:59:46;16.00;99.90
1702;DHT22;848;48.354;10.064;2023-08-06T01:02:14;15.90;99.90
1702;DHT22;848;48.354;10.064;2023-08-06T01:04:40;15.90;99.90
1702;DHT22;848;48.354;10.064;2023-08-06T01:07:18;15.90;99.90
1702;DHT22;848;48.354;10.064;2023-08-06T01:09:57;15.90;99.90
1702;DHT22;848;48.354;10.064;2023-08-06T01:12:33;15.90;99.90
1702;DHT22;848;48.354;10.064;2023-08-06T01:15:07;15.90;99.90
1702;DHT22;848;48.354;10.064;2023-08-06T01:17:35;16.00;99.90
1702;DHT22;848;48.354;10.064;2023-08-06T01:20:03;15.90;99.90
1702;DHT22;848;48.354;10.064;2023-08-06T01:22:31;15.90;99.90
1702;DHT22;848;48.354;10.064;2023-08-06T01:24:58;15.90;99.90
1702;DHT22;848;48.354;10.064;2023-08-06T01:27:30;15.90;99.90
1702;DHT22;848;48.354;10.064;2023-08-06T01:30:03;15.90;99.90
1702;DHT22;848;48.354;10.064;2023-08-06T01:32:34;15.90;99.90
1702;DHT22;848;48.354;10.064;2023-08-06T01:35:02;15.80;99.90
1702;DHT22;848;48.354;10.064;2023-08-06T01:37:31;15.80;99.90
1702;DHT22;848;48.354;10.064;2023-08-06T01:39:59;15.70;99.90
1702;DHT22;848;48.354;10.064;2023-08-06T01:42:25;15.60;99.90
1702;DHT22;848;48.354;10.064;2023-08-06T01:44:52;15.60;99.90
1702;DHT22;848;48.354;10.064;2023-08-06T01:47:19;15.60;99.90
1702;DHT22;848;48.354;10.064;2023-08-06T01:49:46;15.60;99.90
1702;DHT22;848;48.354;10.064;2023-08-06T01:52:13;15.60;99.90
1702;DHT22;848;48.354;10.064;2023-08-06T01:54:41;15.60;99.90
1702;DHT22;848;48.354;10.064;2023-08-06T01:57:08;15.50;99.90
1702;DHT22;848;48.354;10.064;2023-08-06T01:59:35;15.50;99.90
1702;DHT22;848;48.354;10.064;2023-08-06T02:02:02;15.40;99.90
1702;DHT22;848;48.354;10.064;2023-08-06T02:04:29;15.40;99.90
1702;DHT22;848;48.354;10.064;2023-08-06T02:06:56;15.40;99.90
1702;DHT22;848;48.354;10.064;2023-08-06T02:09:23;15.40;99.90
1702;DHT22;848;48.354;10.064;2023-08-06T02:11:51;15.40;99.90
1702;DHT22;848;48.354;10.064;2023-08-06T02:14:18;15.40;99.90
1702;DHT22;848;48.354;10.064;2023-08-06T02:16:45;15.50;99.90
1702;DHT22;848;48.354;10.064;2023-08-06T02:19:11;15.40;99.90
1702;DHT22;848;48.354;10.064;2023-08-06T02:21:38;15.50;99.90
1702;DHT22;848;48.354;10.064;2023-08-06T02:24:05;15.50;99.90
1702;DHT22;848;48.354;10.064;2023-08-06T02:26:32;15.50;99.90
1702;DHT22;848;48.354;10.064;2023-08-06T02:29:00;15.50;99.90
1702;DHT22;848;48.354;10.064;2023-08-06T02:31:27;15.60;99.90
1702;DHT22;848;48.354;10.064;2023-08-06T02:33:54;15.50;99.90
1702;DHT22;848;48.354;10.064;2023-08-06T02:36:22;15.60;99.90
1702;DHT22;848;48.354;10.064;2023-08-06T02:38:49;15.60;99.90
1702;DHT22;848;48.354;10.064;2023-08-06T02:41:16;15.60;99.90
1702;DHT22;848;48.354;10.064;2023-08-06T02:43:43;15.60;99.90
1702;DHT22;848;48.354;10.064;2023-08-06T02:46:11;15.70;99.90
1702;DHT22;848;48.354;10.064;2023-08-06T02:48:38;15.60;99.90
1702;DHT22;848;48.354;10.064;2023-08-06T02:51:05;15.70;99.90
1702;DHT22;848;48.354;10.064;2023-08-06T02:53:32;15.70;99.90
1702;DHT22;848;48.354;10.064;2023-08-06T02:55:59;15.60;99.90
1702;DHT22;848;48.354;10.064;2023-08-06T02:58:26;15.70;99.90
1702;DHT22;848;48.354;10.064;2023-08-06T03:01:02;15.70;99.90
1702;DHT22;848;48.354;10.064;2023-08-06T03:03:31;15.70;99.90
1702;DHT22;848;48.354;10.064;2023-08-06T03:05:58;15.70;99.90
1702;DHT22;848;48.354;10.064;2023-08-06T03:08:25;15.60;99.90
1702;DHT22;848;48.354;10.064;2023-08-06T03:10:52;15.60;99.90
1702;DHT22;848;48.354;10.064;2023-08-06T03:13:19;15.60;99.90
1702;DHT22;848;48.354;10.064;2023-08-06T03:15:52;15.60;99.90
1702;DHT22;848;48.354;10.064;2023-08-06T03:18:20;15.60;99.90
1702;DHT22;848;48.354;10.064;2023-08-06T03:20:49;15.60;99.90
1702;DHT22;848;48.354;10.064;2023-08-06T03:23:16;15.60;99.90
1702;DHT22;848;48.354;10.064;2023-08-06T03:25:43;15.60;99.90
1702;DHT22;848;48.354;10.064;2023-08-06T03:28:10;15.50;99.90
1702;DHT22;848;48.354;10.064;2023-08-06T03:30:37;15.50;99.90
1702;DHT22;848;48.354;10.064;2023-08-06T03:33:04;15.50;99.90
1702;DHT22;848;48.354;10.064;2023-08-06T03:35:30;15.50;99.90
1702;DHT22;848;48.354;10.064;2023-08-06T03:37:59;15.50;99.90
1702;DHT22;848;48.354;10.064;2023-08-06T03:40:25;15.50;99.90
1702;DHT22;848;48.354;10.064;2023-08-06T03:42:52;15.50;99.90
1702;DHT22;848;48.354;10.064;2023-08-06T03:45:19;15.40;99.90
1702;DHT22;848;48.354;10.064;2023-08-06T03:47:46;15.30;99.90
1702;DHT22;848;48.354;10.064;2023-08-06T03:50:13;15.20;99.90
1702;DHT22;848;48.354;10.064;2023-08-06T03:52:40;15.10;99.90
1702;DHT22;848;48.354;10.064;2023-08-06T03:55:08;15.10;99.90
1702;DHT22;848;48.354;10.064;2023-08-06T03:57:35;15.00;99.90
1702;DHT22;848;48.354;10.064;2023-08-06T04:00:02;15.00;99.90
1702;DHT22;848;48.354;10.064;2023-08-06T04:02:30;15.00;99.90
1702;DHT22;848;48.354;10.064;2023-08-06T04:04:56;14.90;99.90
1702;DHT22;848;48.354;10.064;2023-08-06T04:07:24;14.90;99.90
1702;DHT22;848;48.354;10.064;2023-08-06T04:09:53;14.90;99.90
1702;DHT22;848;48.354;10.064;2023-08-06T04:12:21;14.90;99.90
1702;DHT22;848;48.354;10.064;2023-08-06T04:14:49;14.80;99.90
1702;DHT22;848;48.354;10.064;2023-08-06T04:17:16;14.80;99.90
1702;DHT22;848;48.354;10.064;2023-08-06T04:19:46;14.80;99.90
1702;DHT22;848;48.354;10.064;2023-08-06T04:22:13;14.80;99.90
1702;DHT22;848;48.354;10.064;2023-08-06T04:24:40;14.70;99.90
1702;DHT22;848;48.354;10.064;2023-08-06T04:27:07;14.70;99.90
1702;DHT22;848;48.354;10.064;2023-08-06T04:29:36;14.70;99.90
1702;DHT22;848;48.354;10.064;2023-08-06T04:32:05;14.80;99.90
1702;DHT22;848;48.354;10.064;2023-08-06T04:34:32;14.80;99.90
1702;DHT22;848;48.354;10.064;2023-08-06T04:37:00;14.90;99.90
1702;DHT22;848;48.354;10.064;2023-08-06T04:39:27;14.90;99.90
1702;DHT22;848;48.354;10.064;2023-08-06T04:41:54;14.90;99.90
1702;DHT22;848;48.354;10.064;2023-08-06T04:44:21;15.00;99.90
1702;DHT22;848;48.354;10.064;2023-08-06T04:46:50;15.00;99.90
1702;DHT22;848;48.354;10.064;2023-08-06T04:49:17;15.00;99.90
1702;DHT22;848;48.354;10.064;2023-08-06T04:51:44;15.10;99.90
1702;DHT22;848;48.354;10.064;2023-08-06T04:54:11;15.10;99.90
1702;DHT22;848;48.354;10.064;2023-08-06T04:56:37;15.20;99.90
1702;DHT22;848;48.354;10.064;2023-08-06T04:59:04;15.30;99.90
1702;DHT22;848;48.354;10.064;2023-08-06T05:01:31;15.30;99.90
1702;DHT22;848;48.354;10.064;2023-08-06T05:04:00;15.40;99.90
1702;DHT22;848;48.354;10.064;2023-08-06T05:06:26;15.40;99.90
1702;DHT22;848;48.354;10.064;2023-08-06T05:08:53;15.40;99.90
1702;DHT22;848;48.354;10.064;2023-08-06T05:11:20;15.40;99.90
1702;DHT22;848;48.354;10.064;2023-08-06T05:13:47;15.40;99.90
1702;DHT22;848;48.354;10.064;2023-08-06T05:16:14;15.40;99.90
1702;DHT22;848;48.354;10.064;2023-08-06T05:18:41;15.40;99.90
1702;DHT22;848;48.354;10.064;2023-08-06T05:21:09;15.40;99.90
1702;DHT22;848;48.354;10.064;2023-08-06T05:23:36;15.40;99.90
1702;DHT22;848;48.354;10.064;2023-08-06T05:26:03;15.30;99.90
1702;DHT22;848;48.354;10.064;2023-08-06T05:28:30;15.30;99.90
1702;DHT22;848;48.354;10.064;2023-08-06T05:30:57;15.20;99.90
1702;DHT22;848;48.354;10.064;2023-08-06T05:33:24;15.10;99.90
1702;DHT22;848;48.354;10.064;2023-08-06T05:35:50;15.10;99.90
1702;DHT22;848;48.354;10.064;2023-08-06T05:38:19;15.00;99.90
1702;DHT22;848;48.354;10.064;2023-08-06T05:40:45;15.00;99.90
1702;DHT22;848;48.354;10.064;2023-08-06T05:43:13;15.00;99.90
1702;DHT22;848;48.354;10.064;2023-08-06T05:45:43;15.00;99.90
1702;DHT22;848;48.354;10.064;2023-08-06T05:48:10;15.00;99.90
1702;DHT22;848;48.354;10.064;2023-08-06T05:50:37;15.10;99.90
1702;DHT22;848;48.354;10.064;2023-08-06T05:53:04;15.20;99.90
1702;DHT22;848;48.354;10.064;2023-08-06T05:55:32;15.20;99.90
1702;DHT22;848;48.354;10.064;2023-08-06T05:57:59;15.20;99.90
1702;DHT22;848;48.354;10.064;2023-08-06T06:00:26;15.20;99.90
1702;DHT22;848;48.354;10.064;2023-08-06T06:02:53;15.20;99.90
1702;DHT22;848;48.354;10.064;2023-08-06T06:05:20;15.20;99.90
1702;DHT22;848;48.354;10.064;2023-08-06T06:07:47;15.20;99.90
1702;DHT22;848;48.354;10.064;2023-08-06T06:10:13;15.20;99.90
1702;DHT22;848;48.354;10.064;2023-08-06T06:12:42;15.20;99.90
1702;DHT22;848;48.354;10.064;2023-08-06T06:15:09;15.30;99.90
1702;DHT22;848;48.354;10.064;2023-08-06T06:17:36;15.40;99.90
1702;DHT22;848;48.354;10.064;2023-08-06T06:20:04;15.30;99.90
1702;DHT22;848;48.354;10.064;2023-08-06T06:22:31;15.40;99.90
1702;DHT22;848;48.354;10.064;2023-08-06T06:24:58;15.60;99.90
1702;DHT22;848;48.354;10.064;2023-08-06T06:27:25;15.70;99.90
1702;DHT22;848;48.354;10.064;2023-08-06T06:29:53;15.80;99.90
1702;DHT22;848;48.354;10.064;2023-08-06T06:32:21;16.10;99.90
1702;DHT22;848;48.354;10.064;2023-08-06T06:34:48;16.10;99.90
1702;DHT22;848;48.354;10.064;2023-08-06T06:37:15;16.10;99.90
1702;DHT22;848;48.354;10.064;2023-08-06T06:39:42;16.00;99.90
1702;DHT22;848;48.354;10.064;2023-08-06T06:42:09;15.80;99.90
1702;DHT22;848;48.354;10.064;2023-08-06T06:44:36;15.80;99.90
1702;DHT22;848;48.354;10.064;2023-08-06T06:47:05;15.80;99.90
1702;DHT22;848;48.354;10.064;2023-08-06T06:49:31;15.80;99.90
1702;DHT22;848;48.354;10.064;2023-08-06T06:51:58;15.90;99.90
1702;DHT22;848;48.354;10.064;2023-08-06T06:54:25;15.90;99.90
1702;DHT22;848;48.354;10.064;2023-08-06T06:56:52;16.10;99.90
1702;DHT22;848;48.354;10.064;2023-08-06T06:59:19;16.20;99.90
1702;DHT22;848;48.354;10.064;2023-08-06T07:01:46;16.20;99.90
1702;DHT22;848;48.354;10.064;2023-08-06T07:04:14;16.20;99.90
1702;DHT22;848;48.354;10.064;2023-08-06T07:06:41;16.10;99.90
1702;DHT22;848;48.354;10.064;2023-08-06T07:09:08;16.20;99.90
1702;DHT22;848;48.354;10.064;2023-08-06T07:11:35;16.10;99.90
1702;DHT22;848;48.354;10.064;2023-08-06T07:14:01;16.00;99.90
1702;DHT22;848;48.354;10.064;2023-08-06T07:16:28;16.00;99.90
1702;DHT22;848;48.354;10.064;2023-08-06T07:18:55;16.00;99.90
1702;DHT22;848;48.354;10.064;2023-08-06T07:21:24;16.10;99.90
1702;DHT22;848;48.354;10.064;2023-08-06T07:23:51;16.20;99.90
1702;DHT22;848;48.354;10.064;2023-08-06T07:26:18;16.10;99.90
1702;DHT22;848;48.354;10.064;2023-08-06T07:28:45;16.10;99.90
1702;DHT22;848;48.354;10.064;2023-08-06T07:31:12;16.30;99.90
1702;DHT22;848;48.354;10.064;2023-08-06T07:33:38;16.40;99.90
1702;DHT22;848;48.354;10.064;2023-08-06T07:36:09;16.60;99.90
1702;DHT22;848;48.354;10.064;2023-08-06T07:38:37;16.60;99.90
1702;DHT22;848;48.354;10.064;2023-08-06T07:41:04;16.60;99.90
1702;DHT22;848;48.354;10.064;2023-08-06T07:43:32;16.60;99.90
1702;DHT22;848;48.354;10.064;2023-08-06T07:45:59;16.50;99.90
1702;DHT22;848;48.354;10.064;2023-08-06T07:48:26;16.50;99.90
1702;DHT22;848;48.354;10.064;2023-08-06T07:50:53;16.40;99.90
1702;DHT22;848;48.354;10.064;2023-08-06T07:53:21;16.30;99.90
1702;DHT22;848;48.354;10.064;2023-08-06T07:55:51;16.30;99.90
1702;DHT22;848;48.354;10.064;2023-08-06T07:58:18;16.40;99.90
1702;DHT22;848;48.354;10.064;2023-08-06T08:00:46;16.60;99.90
1702;DHT22;848;48.354;10.064;2023-08-06T08:03:13;16.50;99.90
1702;DHT22;848;48.354;10.064;2023-08-06T08:05:41;16.60;99.90
1702;DHT22;848;48.354;10.064;2023-08-06T08:08:08;16.80;99.90
1702;DHT22;848;48.354;10.064;2023-08-06T08:10:35;17.00;99.90
1702;DHT22;848;48.354;10.064;2023-08-06T08:13:04;17.20;99.90
1702;DHT22;848;48.354;10.064;2023-08-06T08:15:32;17.30;99.90
1702;DHT22;848;48.354;10.064;2023-08-06T08:17:59;17.20;99.90
1702;DHT22;848;48.354;10.064;2023-08-06T08:20:26;17.00;99.90
1702;DHT22;848;48.354;10.064;2023-08-06T08:22:57;17.00;99.90
1702;DHT22;848;48.354;10.064;2023-08-06T08:25:24;17.00;99.90
1702;DHT22;848;48.354;10.064;2023-08-06T08:27:52;17.30;99.90
1702;DHT22;848;48.354;10.064;2023-08-06T08:30:20;17.30;99.90
1702;DHT22;848;48.354;10.064;2023-08-06T08:32:47;17.30;99.90
1702;DHT22;848;48.354;10.064;2023-08-06T08:35:14;17.20;99.90
1702;DHT22;848;48.354;10.064;2023-08-06T08:37:42;17.10;99.90
1702;DHT22;848;48.354;10.064;2023-08-06T08:40:09;17.10;99.90
1702;DHT22;848;48.354;10.064;2023-08-06T08:42:37;16.90;99.90
1702;DHT22;848;48.354;10.064;2023-08-06T08:45:05;16.80;99.90
1702;DHT22;848;48.354;10.064;2023-08-06T08:47:35;16.70;99.90
1702;DHT22;848;48.354;10.064;2023-08-06T08:50:05;16.70;99.90
1702;DHT22;848;48.354;10.064;2023-08-06T08:52:33;16.60;99.90
1702;DHT22;848;48.354;10.064;2023-08-06T08:55:01;16.70;99.90
1702;DHT22;848;48.354;10.064;2023-08-06T08:57:28;16.80;99.90
1702;DHT22;848;48.354;10.064;2023-08-06T08:59:55;16.80;99.90
1702;DHT22;848;48.354;10.064;2023-08-06T09:02:24;16.70;99.90
1702;DHT22;848;48.354;10.064;2023-08-06T09:04:54;16.60;99.90
1702;DHT22;848;48.354;10.064;2023-08-06T09:07:22;16.60;99.90
1702;DHT22;848;48.354;10.064;2023-08-06T09:09:50;16.60;99.90
1702;DHT22;848;48.354;10.064;2023-08-06T09:12:18;16.60;99.90
1702;DHT22;848;48.354;10.064;2023-08-06T09:14:45;16.60;99.90
1702;DHT22;848;48.354;10.064;2023-08-06T09:17:12;16.50;99.90
1702;DHT22;848;48.354;10.064;2023-08-06T09:19:42;16.60;99.90
1702;DHT22;848;48.354;10.064;2023-08-06T09:22:13;16.60;99.90
1702;DHT22;848;48.354;10.064;2023-08-06T09:24:41;16.70;99.90
1702;DHT22;848;48.354;10.064;2023-08-06T09:27:11;16.60;99.90
1702;DHT22;848;48.354;10.064;2023-08-06T09:29:41;16.50;99.90
1702;DHT22;848;48.354;10.064;2023-08-06T09:32:09;16.40;99.90
1702;DHT22;848;48.354;10.064;2023-08-06T09:34:38;16.30;99.90
1702;DHT22;848;48.354;10.064;2023-08-06T09:37:06;16.20;99.90
1702;DHT22;848;48.354;10.064;2023-08-06T09:39:37;16.10;99.90
1702;DHT22;848;48.354;10.064;2023-08-06T09:42:04;16.10;99.90
1702;DHT22;848;48.354;10.064;2023-08-06T09:44:32;15.90;99.90
1702;DHT22;848;48.354;10.064;2023-08-06T09:47:00;15.90;99.90
1702;DHT22;848;48.354;10.064;2023-08-06T09:49:28;15.70;99.90
1702;DHT22;848;48.354;10.064;2023-08-06T09:52:07;15.70;99.90
1702;DHT22;848;48.354;10.064;2023-08-06T09:54:38;15.70;99.90
1702;DHT22;848;48.354;10.064;2023-08-06T09:57:05;15.60;99.90
1702;DHT22;848;48.354;10.064;2023-08-06T09:59:32;15.60;99.90
1702;DHT22;848;48.354;10.064;2023-08-06T10:02:00;15.50;99.90
1702;DHT22;848;48.354;10.064;2023-08-06T10:04:29;15.60;99.90
1702;DHT22;848;48.354;10.064;2023-08-06T10:06:57;15.50;99.90
1702;DHT22;848;48.354;10.064;2023-08-06T10:09:24;15.50;99.90
1702;DHT22;848;48.354;10.064;2023-08-06T10:11:53;15.50;99.90
1702;DHT22;848;48.354;10.064;2023-08-06T10:14:25;15.50;99.90
1702;DHT22;848;48.354;10.064;2023-08-06T10:16:54;15.50;99.90
1702;DHT22;848;48.354;10.064;2023-08-06T10:19:24;15.60;99.90
1702;DHT22;848;48.354;10.064;2023-08-06T10:22:11;15.50;99.90
1702;DHT22;848;48.354;10.064;2023-08-06T10:24:48;15.40;99.90
1702;DHT22;848;48.354;10.064;2023-08-06T10:27:28;15.40;99.90
1702;DHT22;848;48.354;10.064;2023-08-06T10:29:55;15.40;99.90
1702;DHT22;848;48.354;10.064;2023-08-06T10:32:48;15.50;99.90
1702;DHT22;848;48.354;10.064;2023-08-06T10:35:32;15.50;99.90
1702;DHT22;848;48.354;10.064;2023-08-06T10:38:05;15.60;99.90
1702;DHT22;848;48.354;10.064;2023-08-06T10:40:34;15.60;99.90
1702;DHT22;848;48.354;10.064;2023-08-06T10:43:03;15.80;99.90
1702;DHT22;848;48.354;10.064;2023-08-06T10:45:34;15.80;99.90
1702;DHT22;848;48.354;10.064;2023-08-06T10:48:02;16.00;99.90
1702;DHT22;848;48.354;10.064;2023-08-06T10:50:30;16.20;99.90
1702;DHT22;848;48.354;10.064;2023-08-06T10:52:58;16.40;99.90
1702;DHT22;848;48.354;10.064;2023-08-06T10:55:30;16.50;99.90
1702;DHT22;848;48.354;10.064;2023-08-06T10:57:58;16.50;99.90
1702;DHT22;848;48.354;10.064;2023-08-06T11:00:26;16.50;99.90
1702;DHT22;848;48.354;10.064;2023-08-06T11:02:53;16.40;99.90
1702;DHT22;848;48.354;10.064;2023-08-06T11:05:20;16.30;99.90
1702;DHT22;848;48.354;10.064;2023-08-06T11:07:48;16.30;99.90
1702;DHT22;848;48.354;10.064;2023-08-06T11:10:16;16.10;99.90
1702;DHT22;848;48.354;10.064;2023-08-06T11:12:44;16.10;99.90
1702;DHT22;848;48.354;10.064;2023-08-06T11:15:11;16.10;99.90
1702;DHT22;848;48.354;10.064;2023-08-06T11:17:40;16.20;99.90
1702;DHT22;848;48.354;10.064;2023-08-06T11:20:09;16.20;99.90
1702;DHT22;848;48.354;10.064;2023-08-06T11:22:37;16.20;99.90
1702;DHT22;848;48.354;10.064;2023-08-06T11:25:05;16.10;99.90
1702;DHT22;848;48.354;10.064;2023-08-06T11:27:33;15.90;99.90
1702;DHT22;848;48.354;10.064;2023-08-06T11:29:59;15.80;99.90
1702;DHT22;848;48.354;10.064;2023-08-06T11:32:26;15.70;99.90
1702;DHT22;848;48.354;10.064;2023-08-06T11:34:55;15.60;99.90
1702;DHT22;848;48.354;10.064;2023-08-06T11:37:23;15.70;99.90
1702;DHT22;848;48.354;10.064;2023-08-06T11:39:51;15.70;99.90
1702;DHT22;848;48.354;10.064;2023-08-06T11:42:18;15.60;99.90
1702;DHT22;848;48.354;10.064;2023-08-06T11:44:45;15.70;99.90
1702;DHT22;848;48.354;10.064;2023-08-06T11:47:14;15.80;99.90
1702;DHT22;848;48.354;10.064;2023-08-06T11:49:43;15.80;99.90
1702;DHT22;848;48.354;10.064;2023-08-06T11:52:14;15.90;99.90
1702;DHT22;848;48.354;10.064;2023-08-06T11:54:42;16.10;99.90
1702;DHT22;848;48.354;10.064;2023-08-06T11:57:10;16.10;99.90
1702;DHT22;848;48.354;10.064;2023-08-06T11:59:37;16.10;99.90
1702;DHT22;848;48.354;10.064;2023-08-06T12:02:05;16.10;99.90
1702;DHT22;848;48.354;10.064;2023-08-06T12:04:58;16.10;99.90
1702;DHT22;848;48.354;10.064;2023-08-06T12:07:31;16.10;99.90
1702;DHT22;848;48.354;10.064;2023-08-06T12:09:58;16.20;99.90
1702;DHT22;848;48.354;10.064;2023-08-06T12:12:25;16.30;99.90
1702;DHT22;848;48.354;10.064;2023-08-06T12:14:52;16.30;99.90
1702;DHT22;848;48.354;10.064;2023-08-06T12:17:19;16.40;99.90
1702;DHT22;848;48.354;10.064;2023-08-06T12:19:46;16.30;99.90
1702;DHT22;848;48.354;10.064;2023-08-06T12:22:14;16.30;99.90
1702;DHT22;848;48.354;10.064;2023-08-06T12:24:42;16.30;99.90
1702;DHT22;848;48.354;10.064;2023-08-06T12:27:10;16.40;99.90
1702;DHT22;848;48.354;10.064;2023-08-06T12:29:39;16.30;99.90
1702;DHT22;848;48.354;10.064;2023-08-06T12:32:07;16.20;99.90
1702;DHT22;848;48.354;10.064;2023-08-06T12:34:34;16.20;99.90
1702;DHT22;848;48.354;10.064;2023-08-06T12:37:01;16.10;99.90
1702;DHT22;848;48.354;10.064;2023-08-06T12:39:28;16.00;99.90
1702;DHT22;848;48.354;10.064;2023-08-06T12:41:58;16.10;99.90
1702;DHT22;848;48.354;10.064;2023-08-06T12:44:25;16.10;99.90
1702;DHT22;848;48.354;10.064;2023-08-06T12:46:53;16.30;99.90
1702;DHT22;848;48.354;10.064;2023-08-06T12:49:20;16.20;99.90
1702;DHT22;848;48.354;10.064;2023-08-06T12:51:47;16.20;99.90
1702;DHT22;848;48.354;10.064;2023-08-06T12:54:15;16.10;99.90
1702;DHT22;848;48.354;10.064;2023-08-06T12:56:43;16.10;99.90
1702;DHT22;848;48.354;10.064;2023-08-06T12:59:11;16.10;99.90
1702;DHT22;848;48.354;10.064;2023-08-06T13:01:38;16.10;99.90
1702;DHT22;848;48.354;10.064;2023-08-06T13:04:05;16.10;99.90
1702;DHT22;848;48.354;10.064;2023-08-06T13:06:32;16.10;99.90
1702;DHT22;848;48.354;10.064;2023-08-06T13:09:01;16.10;99.90
1702;DHT22;848;48.354;10.064;2023-08-06T13:11:29;16.10;99.90
1702;DHT22;848;48.354;10.064;2023-08-06T13:13:59;16.10;99.90
1702;DHT22;848;48.354;10.064;2023-08-06T13:16:27;16.20;99.90
1702;DHT22;848;48.354;10.064;2023-08-06T13:18:54;16.20;99.90
1702;DHT22;848;48.354;10.064;2023-08-06T13:21:21;16.30;99.90
1702;DHT22;848;48.354;10.064;2023-08-06T13:23:48;16.30;99.90
1702;DHT22;848;48.354;10.064;2023-08-06T13:26:15;16.10;99.90
1702;DHT22;848;48.354;10.064;2023-08-06T13:28:42;15.90;99.90
1702;DHT22;848;48.354;10.064;2023-08-06T13:31:09;15.90;99.90
1702;DHT22;848;48.354;10.064;2023-08-06T13:33:38;15.80;99.90
1702;DHT22;848;48.354;10.064;2023-08-06T13:36:05;15.70;99.90
1702;DHT22;848;48.354;10.064;2023-08-06T13:38:31;15.70;99.90
1702;DHT22;848;48.354;10.064;2023-08-06T13:40:58;15.60;99.90
1702;DHT22;848;48.354;10.064;2023-08-06T13:43:25;15.70;99.90
1702;DHT22;848;48.354;10.064;2023-08-06T13:45:53;15.80;99.90
1702;DHT22;848;48.354;10.064;2023-08-06T13:48:20;16.00;99.90
1702;DHT22;848;48.354;10.064;2023-08-06T13:50:48;16.00;99.90
1702;DHT22;848;48.354;10.064;2023-08-06T13:53:15;16.10;99.90
1702;DHT22;848;48.354;10.064;2023-08-06T13:55:42;16.10;99.90
1702;DHT22;848;48.354;10.064;2023-08-06T13:58:08;16.20;99.90
1702;DHT22;848;48.354;10.064;2023-08-06T14:00:35;16.20;99.90
1702;DHT22;848;48.354;10.064;2023-08-06T14:03:03;16.20;99.90
1702;DHT22;848;48.354;10.064;2023-08-06T14:05:29;16.30;99.90
1702;DHT22;848;48.354;10.064;2023-08-06T14:07:58;16.40;99.90
1702;DHT22;848;48.354;10.064;2023-08-06T14:10:24;16.40;99.90
1702;DHT22;848;48.354;10.064;2023-08-06T14:12:51;16.40;99.90
1702;DHT22;848;48.354;10.064;2023-08-06T14:15:18;16.40;99.90
1702;DHT22;848;48.354;10.064;2023-08-06T14:17:45;16.50;99.90
1702;DHT22;848;48.354;10.064;2023-08-06T14:20:12;16.50;99.90
1702;DHT22;848;48.354;10.064;2023-08-06T14:22:39;16.40;99.90
1702;DHT22;848;48.354;10.064;2023-08-06T14:25:08;16.30;99.90
1702;DHT22;848;48.354;10.064;2023-08-06T14:27:35;16.30;99.90
1702;DHT22;848;48.354;10.064;2023-08-06T14:30:05;16.40;99.90
1702;DHT22;848;48.354;10.064;2023-08-06T14:32:32;16.40;99.90
1702;DHT22;848;48.354;10.064;2023-08-06T14:34:59;16.50;99.90
1702;DHT22;848;48.354;10.064;2023-08-06T14:37:26;16.30;99.90
1702;DHT22;848;48.354;10.064;2023-08-06T14:39:52;16.30;99.90
1702;DHT22;848;48.354;10.064;2023-08-06T14:42:21;16.30;99.90
1702;DHT22;848;48.354;10.064;2023-08-06T14:44:48;16.30;99.90
1702;DHT22;848;48.354;10.064;2023-08-06T14:47:15;16.20;99.90
1702;DHT22;848;48.354;10.064;2023-08-06T14:49:42;16.10;99.90
1702;DHT22;848;48.354;10.064;2023-08-06T14:52:10;16.00;99.90
1702;DHT22;848;48.354;10.064;2023-08-06T14:54:37;15.90;99.90
1702;DHT22;848;48.354;10.064;2023-08-06T14:57:04;15.90;99.90
1702;DHT22;848;48.354;10.064;2023-08-06T14:59:34;15.80;99.90
1702;DHT22;848;48.354;10.064;2023-08-06T15:02:00;15.80;99.90
1702;DHT22;848;48.354;10.064;2023-08-06T15:04:27;15.70;99.90
1702;DHT22;848;48.354;10.064;2023-08-06T15:06:55;15.80;99.90
1702;DHT22;848;48.354;10.064;2023-08-06T15:09:22;15.80;99.90
1702;DHT22;848;48.354;10.064;2023-08-06T15:11:48;15.70;99.90
1702;DHT22;848;48.354;10.064;2023-08-06T15:14:16;15.80;99.90
1702;DHT22;848;48.354;10.064;2023-08-06T15:16:46;15.90;99.90
1702;DHT22;848;48.354;10.064;2023-08-06T15:19:14;16.20;99.90
1702;DHT22;848;48.354;10.064;2023-08-06T15:21:40;16.30;99.90
1702;DHT22;848;48.354;10.064;2023-08-06T15:24:09;16.50;99.90
1702;DHT22;848;48.354;10.064;2023-08-06T15:26:35;16.50;99.90
1702;DHT22;848;48.354;10.064;2023-08-06T15:29:02;16.40;99.90
1702;DHT22;848;48.354;10.064;2023-08-06T15:31:36;16.30;99.90
1702;DHT22;848;48.354;10.064;2023-08-06T15:34:05;16.20;99.90
1702;DHT22;848;48.354;10.064;2023-08-06T15:36:32;16.20;99.90
1702;DHT22;848;48.354;10.064;2023-08-06T15:38:59;16.20;99.90
1702;DHT22;848;48.354;10.064;2023-08-06T15:41:26;16.20;99.90
1702;DHT22;848;48.354;10.064;2023-08-06T15:43:53;16.20;99.90
1702;DHT22;848;48.354;10.064;2023-08-06T15:46:20;16.20;99.90
1702;DHT22;848;48.354;10.064;2023-08-06T15:48:47;16.20;99.90
1702;DHT22;848;48.354;10.064;2023-08-06T15:51:15;16.20;99.90
1702;DHT22;848;48.354;10.064;2023-08-06T15:53:42;16.20;99.90
1702;DHT22;848;48.354;10.064;2023-08-06T15:56:09;16.20;99.90
1702;DHT22;848;48.354;10.064;2023-08-06T15:58:36;16.10;99.90
1702;DHT22;848;48.354;10.064;2023-08-06T16:01:03;16.00;99.90
1702;DHT22;848;48.354;10.064;2023-08-06T16:03:30;15.90;99.90
1702;DHT22;848;48.354;10.064;2023-08-06T16:05:57;15.80;99.90